createdAt,value
2022-10-10T00:11:59.413Z,6.10
2022-10-10T00:23:59.930Z,5.90
2022-10-10T00:36:00.380Z,6.40
2022-10-10T00:48:00.808Z,6.40
2022-10-10T01:00:01.237Z,6.90
2022-10-10T01:12:01.667Z,7.40
2022-10-10T01:24:02.187Z,7.10
2022-10-10T01:36:02.615Z,6.90
2022-10-10T01:48:03.067Z,6.80
2022-10-10T02:00:03.545Z,6.70
2022-10-10T02:12:03.976Z,7.00
2022-10-10T02:24:04.395Z,6.00
2022-10-10T02:36:04.898Z,6.40
2022-10-10T02:48:05.341Z,6.60
2022-10-10T03:00:05.790Z,6.10
2022-10-10T03:12:06.239Z,18.10
2022-10-10T03:24:06.682Z,10.30
2022-10-10T03:36:07.147Z,8.50
2022-10-10T03:48:07.577Z,7.70
2022-10-10T04:00:08.146Z,8.50
2022-10-10T04:12:08.478Z,12.60
2022-10-10T04:24:08.975Z,11.80
2022-10-10T04:36:09.419Z,16.00
2022-10-10T04:48:09.853Z,6.60
2022-10-10T05:00:10.311Z,7.90
2022-10-10T05:12:10.759Z,18.40
2022-10-10T05:24:11.230Z,11.90
2022-10-10T05:36:11.658Z,10.70
2022-10-10T05:48:12.112Z,10.80
2022-10-10T06:00:12.587Z,7.40
2022-10-10T06:12:13.046Z,5.50
2022-10-10T06:24:13.478Z,5.50
2022-10-10T06:36:13.919Z,5.10
2022-10-10T06:48:14.394Z,4.90
2022-10-10T07:00:14.819Z,4.50
2022-10-10T07:12:15.285Z,4.60
2022-10-10T07:24:15.702Z,4.50
2022-10-10T07:36:16.215Z,4.30
2022-10-10T07:48:16.666Z,7.00
2022-10-10T08:00:17.095Z,3.60
2022-10-10T08:12:17.516Z,3.70
2022-10-10T08:24:18.016Z,3.30
2022-10-10T08:36:18.493Z,3.90
2022-10-10T08:48:18.927Z,4.60
2022-10-10T09:00:19.323Z,4.60
2022-10-10T09:12:19.818Z,4.80
2022-10-10T09:24:20.281Z,5.40
2022-10-10T09:36:20.723Z,5.20
2022-10-10T09:48:21.159Z,6.30
2022-10-10T10:00:21.659Z,7.00
2022-10-10T10:12:22.091Z,7.40
2022-10-10T10:24:22.553Z,7.30
2022-10-10T10:36:22.984Z,8.10
2022-10-10T10:48:23.450Z,7.10
2022-10-10T11:00:47.237Z,7.30
2022-10-10T11:12:24.364Z,6.00
2022-10-10T11:24:24.791Z,7.10
2022-10-10T11:36:25.337Z,6.70
2022-10-10T11:48:25.790Z,7.80
2022-10-10T12:00:26.133Z,9.40
2022-10-10T12:12:26.637Z,9.80
2022-10-10T12:24:27.120Z,8.80
2022-10-10T12:36:27.577Z,9.60
2022-10-10T12:48:28.013Z,8.00
2022-10-10T13:00:28.462Z,9.60
2022-10-10T13:12:28.929Z,10.70
2022-10-10T13:24:29.362Z,11.10
2022-10-10T13:36:29.794Z,12.30
2022-10-10T13:48:30.292Z,12.80
2022-10-10T14:00:30.745Z,28.40
2022-10-10T14:12:31.226Z,9.80
2022-10-10T14:24:31.656Z,9.40
2022-10-10T14:36:32.131Z,7.60
2022-10-10T14:48:32.562Z,7.00
2022-10-10T15:00:33.028Z,7.50
2022-10-10T15:12:33.488Z,9.10
2022-10-10T15:24:33.884Z,8.60
2022-10-10T15:36:34.394Z,8.60
2022-10-10T15:48:34.842Z,8.30
2022-10-10T16:00:35.308Z,8.80
2022-10-10T16:12:35.716Z,9.10
2022-10-10T16:24:36.213Z,9.30
2022-10-10T16:36:36.650Z,10.60
2022-10-10T16:48:37.059Z,10.90
2022-10-10T17:00:37.577Z,13.10
2022-10-10T17:12:37.995Z,14.00
2022-10-10T17:24:38.466Z,12.00
2022-10-10T17:36:38.920Z,13.30
2022-10-10T17:48:39.371Z,16.60
2022-10-10T18:00:39.810Z,14.00
2022-10-10T18:12:40.233Z,15.10
2022-10-10T18:24:40.755Z,15.20
2022-10-10T18:36:41.191Z,17.40
2022-10-10T18:48:41.654Z,17.80
2022-10-10T19:00:42.124Z,23.80
2022-10-10T19:12:47.070Z,29.30
2022-10-10T19:24:42.992Z,27.30
2022-10-10T19:36:43.485Z,28.10
2022-10-10T19:48:43.906Z,25.90
2022-10-10T20:00:44.367Z,23.70
2022-10-10T20:12:44.800Z,26.20
2022-10-10T20:24:45.259Z,24.20
2022-10-10T20:36:45.721Z,23.50
2022-10-10T20:48:46.147Z,24.30
2022-10-10T21:00:46.641Z,27.90
2022-10-10T21:12:47.090Z,26.00
2022-10-10T21:24:47.531Z,31.60
2022-10-10T21:36:47.984Z,33.20
2022-10-10T21:48:48.439Z,30.70
2022-10-10T22:00:48.957Z,30.60
2022-10-10T22:12:49.355Z,30.40
2022-10-10T22:24:49.783Z,32.60
2022-10-10T22:36:50.236Z,41.30
2022-10-10T22:48:50.731Z,40.60
2022-10-10T23:00:51.224Z,31.30
2022-10-10T23:12:51.619Z,32.20
2022-10-10T23:24:52.075Z,33.70
2022-10-10T23:36:52.540Z,33.20
2022-10-10T23:48:52.985Z,33.20
